createdAt,value
2018-07-09T00:01:44.019Z,99466.47
2018-07-09T00:04:14.203Z,99468.73
2018-07-09T00:06:44.043Z,99471.48
2018-07-09T00:09:14.185Z,99469.84
2018-07-09T00:11:44.313Z,99470.17
2018-07-09T00:14:14.736Z,99466.09
2018-07-09T00:16:45.131Z,99466.97
2018-07-09T00:19:15.025Z,99469.20
2018-07-09T00:21:45.191Z,99468.97
2018-07-09T00:24:15.792Z,99461.84
2018-07-09T00:26:45.996Z,99465.95
2018-07-09T00:29:16.529Z,99458.27
2018-07-09T00:31:46.780Z,99453.04
2018-07-09T00:34:16.870Z,99453.92
2018-07-09T00:36:47.053Z,99455.03
2018-07-09T00:39:17.278Z,99451.02
2018-07-09T00:41:47.703Z,99451.64
2018-07-09T00:44:17.721Z,99447.28
2018-07-09T00:46:48.012Z,99448.69
2018-07-09T00:49:18.975Z,99449.31
2018-07-09T00:51:49.534Z,99447.74
2018-07-09T00:54:20.547Z,99446.47
2018-07-09T00:56:51.408Z,99447.97
2018-07-09T00:59:21.970Z,99454.05
2018-07-09T01:01:52.429Z,99450.05
2018-07-09T01:04:22.371Z,99443.84
2018-07-09T01:06:52.447Z,99449.12
2018-07-09T01:09:22.433Z,99444.25
2018-07-09T01:12:02.290Z,99439.38
2018-07-09T01:14:32.282Z,99445.48
2018-07-09T01:17:07.746Z,99445.52
2018-07-09T01:19:38.467Z,99444.20
2018-07-09T01:22:08.855Z,99443.67
2018-07-09T01:24:39.356Z,99442.92
2018-07-09T01:27:09.729Z,99443.53
2018-07-09T01:29:39.750Z,99441.66
2018-07-09T01:32:09.778Z,99430.45
2018-07-09T01:34:40.040Z,99438.72
2018-07-09T01:37:10.391Z,99431.36
2018-07-09T01:39:40.493Z,99435.50
2018-07-09T01:42:10.965Z,99431.70
2018-07-09T01:44:41.183Z,99432.31
2018-07-09T01:47:11.694Z,99431.23
2018-07-09T01:49:41.863Z,99428.55
2018-07-09T01:52:12.837Z,99425.28
2018-07-09T01:54:43.011Z,99426.70
2018-07-09T01:57:13.446Z,99422.06
2018-07-09T01:59:43.576Z,99423.48
2018-07-09T02:02:14.174Z,99412.58
2018-07-09T02:04:44.431Z,99417.53
2018-07-09T02:07:14.685Z,99413.48
2018-07-09T02:09:44.996Z,99412.72
2018-07-09T02:12:15.540Z,99416.02
2018-07-09T02:14:45.850Z,99418.22
2018-07-09T02:17:15.882Z,99414.69
2018-07-09T02:19:49.099Z,99414.43
2018-07-09T02:22:19.405Z,99414.16
2018-07-09T02:24:49.592Z,99419.70
2018-07-09T02:27:19.798Z,99412.03
2018-07-09T02:29:49.885Z,99413.14
2018-07-09T02:32:20.091Z,99419.50
2018-07-09T02:34:50.294Z,99420.60
2018-07-09T02:37:20.233Z,99419.78
2018-07-09T02:39:50.317Z,99421.77
2018-07-09T02:42:20.361Z,99422.05
2018-07-09T02:44:50.723Z,99421.82
2018-07-09T02:47:20.698Z,99426.48
2018-07-09T02:49:51.053Z,99428.97
2018-07-09T02:52:21.039Z,99429.78
2018-07-09T02:54:51.095Z,99424.85
2018-07-09T02:57:21.950Z,99425.41
2018-07-09T02:59:52.206Z,99426.78
2018-07-09T03:02:22.338Z,99426.51
2018-07-09T03:04:52.412Z,99422.16
2018-07-09T03:07:23.429Z,99423.53
2018-07-09T03:09:53.709Z,99425.72
2018-07-09T03:12:24.575Z,99422.16
2018-07-09T03:14:54.907Z,99420.23
2018-07-09T03:17:24.987Z,99415.30
2018-07-09T03:19:55.023Z,99415.54
2018-07-09T03:22:25.191Z,99414.17
2018-07-09T03:24:55.463Z,99418.28
2018-07-09T03:27:26.231Z,99421.29
2018-07-09T03:29:56.716Z,99422.11
2018-07-09T03:32:27.436Z,99422.05
2018-07-09T03:34:57.478Z,99422.37
2018-07-09T03:37:27.765Z,99424.80
2018-07-09T03:39:57.901Z,99425.59
2018-07-09T03:42:28.247Z,99425.59
2018-07-09T03:44:58.386Z,99424.72
2018-07-09T03:47:28.490Z,99426.03
2018-07-09T03:49:58.823Z,99428.48
2018-07-09T03:52:28.903Z,99429.81
2018-07-09T03:54:58.847Z,99427.59
2018-07-09T03:57:29.236Z,99430.84
2018-07-09T03:59:59.389Z,99427.19
2018-07-09T04:02:29.617Z,99426.84
2018-07-09T04:04:59.906Z,99430.35
2018-07-09T04:07:30.090Z,99434.38
2018-07-09T04:10:00.416Z,99436.44
2018-07-09T04:12:30.732Z,99441.19
2018-07-09T04:15:00.999Z,99440.23
2018-07-09T04:17:31.281Z,99438.98
2018-07-09T04:20:01.422Z,99445.13
2018-07-09T04:22:31.835Z,99443.02
2018-07-09T04:25:02.199Z,99448.62
2018-07-09T04:27:32.560Z,99448.46
2018-07-09T04:30:02.778Z,99443.09
2018-07-09T04:32:33.021Z,99440.25
2018-07-09T04:35:03.213Z,99452.65
2018-07-09T04:37:33.730Z,99450.03
2018-07-09T04:40:04.529Z,99454.27
2018-07-09T04:42:34.851Z,99452.73
2018-07-09T04:45:05.025Z,99453.73
2018-07-09T04:47:35.242Z,99456.19
2018-07-09T04:50:05.940Z,99458.02
2018-07-09T04:52:36.154Z,99454.83
2018-07-09T04:55:06.283Z,99457.02
2018-07-09T04:57:37.142Z,99451.75
2018-07-09T05:00:07.395Z,99451.72
2018-07-09T05:02:37.533Z,99447.59
2018-07-09T05:05:07.727Z,99446.14
2018-07-09T05:07:38.209Z,99447.41
2018-07-09T05:10:08.581Z,99446.22
2018-07-09T05:12:38.892Z,99444.14
2018-07-09T05:15:09.177Z,99446.22
2018-07-09T05:17:39.701Z,99444.47
2018-07-09T05:20:09.995Z,99440.79
2018-07-09T05:22:40.652Z,99441.53
2018-07-09T05:25:11.046Z,99445.23
2018-07-09T05:27:41.363Z,99446.75
2018-07-09T05:30:11.782Z,99445.78
2018-07-09T05:32:41.998Z,99441.84
2018-07-09T05:35:12.832Z,99447.86
2018-07-09T05:37:43.113Z,99436.29
2018-07-09T05:40:13.412Z,99444.17
2018-07-09T05:42:43.895Z,99442.64
2018-07-09T05:45:14.169Z,99444.37
2018-07-09T05:47:44.485Z,99442.05
2018-07-09T05:50:14.619Z,99450.27
2018-07-09T05:52:44.801Z,99442.79
2018-07-09T05:55:15.044Z,99447.91
2018-07-09T05:57:45.344Z,99449.24
2018-07-09T06:00:15.749Z,99445.29
2018-07-09T06:02:45.939Z,99441.59
2018-07-09T06:05:16.443Z,99443.37
2018-07-09T06:07:46.660Z,99441.38
2018-07-09T06:10:16.840Z,99447.36
2018-07-09T06:12:47.242Z,99444.48
2018-07-09T06:15:17.911Z,99450.92
2018-07-09T06:17:48.622Z,99445.41
2018-07-09T06:20:18.737Z,99450.28
2018-07-09T06:22:50.010Z,99455.66
2018-07-09T06:25:20.773Z,99454.28
2018-07-09T06:27:51.489Z,99451.52
2018-07-09T06:30:21.869Z,99456.47
2018-07-09T06:32:52.362Z,99454.02
2018-07-09T06:35:22.963Z,99457.68
2018-07-09T06:37:53.636Z,99453.12
2018-07-09T06:40:23.846Z,99458.88
2018-07-09T06:42:54.887Z,99459.05
2018-07-09T06:45:25.115Z,99460.05
2018-07-09T06:47:55.585Z,99459.58
2018-07-09T06:50:25.759Z,99459.35
2018-07-09T06:52:57.505Z,99458.31
2018-07-09T06:55:27.758Z,99464.16
2018-07-09T06:57:58.107Z,99464.64
2018-07-09T07:00:28.517Z,99467.59
2018-07-09T07:02:58.813Z,99460.22
2018-07-09T07:05:29.038Z,99459.82
2018-07-09T07:07:59.936Z,99459.48
2018-07-09T07:10:30.312Z,99457.53
2018-07-09T07:13:00.973Z,99456.66
2018-07-09T07:15:31.009Z,99452.36
2018-07-09T07:18:02.453Z,99457.94
2018-07-09T07:20:32.655Z,99446.48
2018-07-09T07:23:03.328Z,99451.22
2018-07-09T07:25:34.287Z,99454.95
2018-07-09T07:28:04.526Z,99450.39
2018-07-09T07:30:34.847Z,99455.51
2018-07-09T07:33:05.037Z,99457.02
2018-07-09T07:35:35.579Z,99454.84
2018-07-09T07:38:06.304Z,99451.44
2018-07-09T07:40:36.748Z,99446.89
2018-07-09T07:43:07.842Z,99451.19
2018-07-09T07:45:37.950Z,99447.69
2018-07-09T07:48:08.472Z,99447.06
2018-07-09T07:50:38.783Z,99448.00
2018-07-09T07:53:09.264Z,99443.96
2018-07-09T07:55:39.497Z,99453.47
2018-07-09T07:58:09.688Z,99449.80
2018-07-09T08:00:40.204Z,99453.02
2018-07-09T08:03:11.831Z,99448.98
2018-07-09T08:05:42.021Z,99439.07
2018-07-09T08:08:12.289Z,99436.97
2018-07-09T08:10:42.494Z,99436.16
2018-07-09T08:13:27.983Z,99429.50
2018-07-09T08:15:44.479Z,99428.13
2018-07-09T08:18:14.983Z,99424.55
2018-07-09T08:20:45.364Z,99425.62
2018-07-09T08:23:15.887Z,99418.53
2018-07-09T08:25:46.230Z,99425.27
2018-07-09T08:28:16.443Z,99419.59
2018-07-09T08:30:46.641Z,99419.08
2018-07-09T08:33:17.268Z,99417.59
2018-07-09T08:35:47.565Z,99404.21
2018-07-09T08:38:17.827Z,99419.34
2018-07-09T08:40:48.047Z,99405.34
2018-07-09T08:55:33.697Z,99411.86
2018-07-09T08:58:03.828Z,99405.13
2018-07-09T09:00:33.878Z,99399.35
2018-07-09T09:03:04.089Z,99403.49
2018-07-09T09:05:34.205Z,99403.02
2018-07-09T09:08:04.359Z,99397.47
2018-07-09T09:10:40.394Z,99405.49
2018-07-09T09:13:11.641Z,99402.81
2018-07-09T09:15:41.934Z,99392.38
2018-07-09T09:18:12.063Z,99392.45
2018-07-09T09:20:42.309Z,99382.41
2018-07-09T09:23:12.394Z,99386.02
2018-07-09T09:25:42.698Z,99389.64
2018-07-09T09:28:13.045Z,99397.28
2018-07-09T09:30:43.189Z,99389.70
2018-07-09T09:33:13.401Z,99389.45
2018-07-09T09:35:43.541Z,99385.80
2018-07-09T09:38:13.643Z,99392.61
2018-07-09T09:40:44.077Z,99390.83
2018-07-09T09:43:14.372Z,99390.73
2018-07-09T09:45:45.218Z,99388.67
2018-07-09T09:48:15.501Z,99386.15
2018-07-09T09:50:45.516Z,99382.85
2018-07-09T09:53:15.800Z,99383.73
2018-07-09T09:55:46.146Z,99379.85
2018-07-09T09:58:16.339Z,99383.08
2018-07-09T10:00:50.759Z,99378.03
2018-07-09T10:03:20.879Z,99377.60
2018-07-09T10:05:51.026Z,99374.16
2018-07-09T10:08:20.915Z,99377.52
2018-07-09T10:10:51.248Z,99373.98
2018-07-09T10:13:21.559Z,99375.15
2018-07-09T10:15:51.902Z,99371.94
2018-07-09T10:18:21.907Z,99362.99
2018-07-09T10:20:52.164Z,99368.45
2018-07-09T10:23:23.822Z,99368.95
2018-07-09T10:25:54.313Z,99367.70
2018-07-09T10:28:24.741Z,99368.77
2018-07-09T10:30:55.801Z,99358.26
2018-07-09T10:33:25.996Z,99360.09
2018-07-09T10:35:56.456Z,99361.03
2018-07-09T10:38:27.814Z,99349.31
2018-07-09T10:40:58.139Z,99350.70
2018-07-09T10:43:28.459Z,99356.48
2018-07-09T10:45:58.781Z,99355.14
2018-07-09T10:48:28.775Z,99356.28
2018-07-09T10:50:59.054Z,99347.20
2018-07-09T10:53:29.480Z,99347.11
2018-07-09T10:55:59.711Z,99344.48
2018-07-09T10:58:29.761Z,99349.92
2018-07-09T11:01:00.811Z,99347.94
2018-07-09T11:03:31.372Z,99345.98
2018-07-09T11:06:01.481Z,99341.37
2018-07-09T11:08:31.585Z,99340.00
2018-07-09T11:11:01.774Z,99341.71
2018-07-09T11:13:32.803Z,99332.16
2018-07-09T11:16:03.144Z,99329.83
2018-07-09T11:18:33.291Z,99334.10
2018-07-09T11:21:04.495Z,99331.00
2018-07-09T11:23:34.734Z,99326.02
2018-07-09T11:26:04.893Z,99321.05
2018-07-09T11:28:35.041Z,99322.33
2018-07-09T11:31:05.052Z,99314.83
2018-07-09T11:33:35.132Z,99322.55
2018-07-09T11:36:05.831Z,99318.73
2018-07-09T11:38:36.263Z,99322.42
2018-07-09T11:41:06.246Z,99310.39
2018-07-09T11:43:36.257Z,99311.78
2018-07-09T11:46:06.225Z,99289.56
2018-07-09T11:48:36.367Z,99288.61
2018-07-09T11:51:06.591Z,99289.38
2018-07-09T11:53:37.224Z,99290.56
2018-07-09T11:56:07.457Z,99288.33
2018-07-09T11:58:37.897Z,99283.72
2018-07-09T12:01:08.322Z,99282.44
2018-07-09T12:03:38.633Z,99281.39
2018-07-09T12:06:08.912Z,99285.64
2018-07-09T12:08:39.312Z,99276.98
2018-07-09T12:11:09.624Z,99278.84
2018-07-09T12:13:39.835Z,99284.39
2018-07-09T12:16:10.148Z,99280.47
2018-07-09T12:18:39.959Z,99276.17
2018-07-09T12:21:10.116Z,99278.23
2018-07-09T12:23:40.184Z,99278.70
2018-07-09T12:26:11.296Z,99264.11
2018-07-09T12:28:41.560Z,99265.35
2018-07-09T12:31:11.805Z,99265.24
2018-07-09T12:33:41.812Z,99266.35
2018-07-09T12:36:12.211Z,99263.47
2018-07-09T12:38:42.369Z,99257.45
2018-07-09T12:41:12.498Z,99252.03
2018-07-09T12:43:42.751Z,99255.16
2018-07-09T12:46:13.016Z,99259.07
2018-07-09T12:48:43.486Z,99264.25
2018-07-09T12:51:13.510Z,99256.16
2018-07-09T12:53:43.579Z,99255.81
2018-07-09T12:56:13.722Z,99235.95
2018-07-09T12:58:43.739Z,99243.31
2018-07-09T13:01:14.402Z,99251.73
2018-07-09T13:03:45.120Z,99249.39
2018-07-09T13:06:14.838Z,99254.84
2018-07-09T13:08:45.164Z,99243.93
2018-07-09T13:11:15.380Z,99253.07
2018-07-09T13:13:45.468Z,99248.80
2018-07-09T13:16:15.690Z,99245.50
2018-07-09T13:18:45.909Z,99238.67
2018-07-09T13:21:16.118Z,99243.19
2018-07-09T13:23:46.207Z,99249.66
2018-07-09T13:26:16.545Z,99233.95
2018-07-09T13:28:47.607Z,99220.73
2018-07-09T13:31:17.659Z,99236.48
2018-07-09T13:33:47.571Z,99234.95
2018-07-09T13:36:18.332Z,99233.33
2018-07-09T13:38:48.378Z,99223.41
2018-07-09T13:41:18.601Z,99219.12
2018-07-09T13:43:48.786Z,99216.34
2018-07-09T13:46:18.926Z,99211.40
2018-07-09T13:48:48.888Z,99217.73
2018-07-09T13:51:19.650Z,99222.13
2018-07-09T13:53:49.915Z,99225.95
2018-07-09T13:56:20.071Z,99223.98
2018-07-09T13:58:50.819Z,99226.18
2018-07-09T14:01:20.964Z,99216.00
2018-07-09T14:03:51.166Z,99221.80
2018-07-09T14:06:21.880Z,99219.66
2018-07-09T14:08:51.757Z,99215.66
2018-07-09T14:11:21.740Z,99217.77
2018-07-09T14:13:51.666Z,99221.94
2018-07-09T14:16:21.718Z,99216.70
2018-07-09T14:18:52.220Z,99223.97
2018-07-09T14:21:22.613Z,99229.84
2018-07-09T14:23:53.248Z,99222.30
2018-07-09T14:26:24.191Z,99217.20
2018-07-09T14:28:54.314Z,99223.00
2018-07-09T14:31:24.550Z,99216.48
2018-07-09T14:33:55.472Z,99206.05
2018-07-09T14:36:25.746Z,99203.36
2018-07-09T14:38:56.078Z,99210.76
2018-07-09T14:41:26.139Z,99209.26
2018-07-09T14:43:56.475Z,99195.84
2018-07-09T14:46:26.611Z,99197.42
2018-07-09T14:48:56.735Z,99194.73
2018-07-09T14:51:26.792Z,99201.18
2018-07-09T14:53:56.814Z,99198.78
2018-07-09T14:56:26.591Z,99191.09
2018-07-09T14:58:56.362Z,99190.74
2018-07-09T15:01:26.240Z,99192.86
2018-07-09T15:03:56.462Z,99183.02
2018-07-09T15:06:26.575Z,99176.37
2018-07-09T15:08:56.976Z,99176.63
2018-07-09T15:11:26.905Z,99170.18
2018-07-09T15:13:57.092Z,99174.58
2018-07-09T15:16:27.118Z,99168.06
2018-07-09T15:18:57.535Z,99163.64
2018-07-09T15:21:28.062Z,99168.94
2018-07-09T15:23:58.322Z,99169.59
2018-07-09T15:26:29.135Z,99169.69
2018-07-09T15:28:59.484Z,99173.23
2018-07-09T15:31:29.642Z,99169.97
2018-07-09T15:33:59.478Z,99167.50
2018-07-09T15:36:29.362Z,99160.78
2018-07-09T15:38:59.817Z,99159.74
2018-07-09T15:41:30.006Z,99163.59
2018-07-09T15:44:02.714Z,99159.58
2018-07-09T15:46:32.753Z,99158.54
2018-07-09T15:49:02.630Z,99153.80
2018-07-09T15:51:38.717Z,99149.42
2018-07-09T15:54:09.017Z,99151.98
2018-07-09T15:56:38.857Z,99145.96
2018-07-09T15:59:09.483Z,99145.38
2018-07-09T16:01:39.514Z,99154.17
2018-07-09T16:04:09.555Z,99158.34
2018-07-09T16:06:39.751Z,99153.71
2018-07-09T16:09:09.862Z,99152.44
2018-07-09T16:11:40.039Z,99155.48
2018-07-09T16:14:09.787Z,99147.79
2018-07-09T16:16:39.568Z,99145.66
2018-07-09T16:19:09.377Z,99148.11
2018-07-09T16:21:39.487Z,99155.20
2018-07-09T16:24:09.779Z,99146.98
2018-07-09T16:26:39.760Z,99139.03
2018-07-09T16:29:11.008Z,99142.50
2018-07-09T16:31:40.838Z,99145.57
2018-07-09T16:34:10.873Z,99149.98
2018-07-09T16:36:41.042Z,99153.39
2018-07-09T16:39:11.000Z,99157.23
2018-07-09T16:41:40.819Z,99151.81
2018-07-09T16:44:10.493Z,99152.78
2018-07-09T16:46:40.979Z,99144.16
2018-07-09T16:49:10.914Z,99150.05
2018-07-09T16:51:40.988Z,99154.13
2018-07-09T16:54:10.985Z,99147.09
2018-07-09T16:56:40.930Z,99151.16
2018-07-09T16:59:10.708Z,99153.83
2018-07-09T17:01:40.919Z,99163.44
2018-07-09T17:04:10.892Z,99166.22
2018-07-09T17:06:40.768Z,99153.31
2018-07-09T17:09:10.870Z,99170.80
2018-07-09T17:11:40.929Z,99169.04
2018-07-09T17:14:11.214Z,99160.19
2018-07-09T17:16:41.194Z,99159.14
2018-07-09T17:19:11.285Z,99168.97
2018-07-09T17:21:42.939Z,99164.23
2018-07-09T17:24:12.763Z,99176.27
2018-07-09T17:26:42.561Z,99169.13
2018-07-09T17:29:12.601Z,99172.26
2018-07-09T17:31:42.648Z,99184.62
2018-07-09T17:34:12.693Z,99180.82
2018-07-09T17:36:42.656Z,99177.95
2018-07-09T17:39:12.481Z,99178.48
2018-07-09T17:41:42.396Z,99180.02
2018-07-09T17:44:18.874Z,99183.00
2018-07-09T17:46:48.975Z,99186.12
2018-07-09T17:49:18.918Z,99183.93
2018-07-09T17:51:48.888Z,99173.30
2018-07-09T17:54:19.239Z,99182.17
2018-07-09T17:56:49.602Z,99176.89
2018-07-09T17:59:24.375Z,99175.72
2018-07-09T18:01:56.652Z,99173.97
2018-07-09T18:04:27.160Z,99173.70
2018-07-09T18:06:57.199Z,99178.06
2018-07-09T18:09:27.072Z,99174.23
2018-07-09T18:11:57.195Z,99180.58
2018-07-09T18:14:27.223Z,99177.78
2018-07-09T18:16:57.211Z,99172.48
2018-07-09T18:19:27.232Z,99165.77
2018-07-09T18:21:57.585Z,99166.58
2018-07-09T18:24:31.758Z,99171.73
2018-07-09T18:27:01.675Z,99177.47
2018-07-09T18:29:32.179Z,99177.09
2018-07-09T18:32:02.604Z,99173.36
2018-07-09T18:34:32.405Z,99177.16
2018-07-09T18:37:02.466Z,99173.46
2018-07-09T18:39:32.544Z,99172.16
2018-07-09T18:42:02.594Z,99178.94
2018-07-09T18:44:36.923Z,99180.19
2018-07-09T18:47:07.009Z,99183.52
2018-07-09T18:49:37.075Z,99182.81
2018-07-09T18:52:07.212Z,99180.98
2018-07-09T18:54:37.319Z,99203.73
2018-07-09T18:57:07.635Z,99195.91
2018-07-09T18:59:37.685Z,99197.37
2018-07-09T19:02:08.679Z,99208.77
2018-07-09T19:04:38.698Z,99200.13
2018-07-09T19:07:10.235Z,99203.45
2018-07-09T19:09:40.575Z,99188.30
2018-07-09T19:12:11.140Z,99210.80
2018-07-09T19:14:45.736Z,99216.56
2018-07-09T19:17:55.170Z,99223.23
2018-07-09T19:20:37.154Z,99226.66
2018-07-09T19:23:06.773Z,99223.66
2018-07-09T19:25:36.367Z,99228.16
2018-07-09T19:28:06.527Z,99232.30
2018-07-09T19:30:35.136Z,99235.30
2018-07-09T19:33:03.845Z,99235.30
2018-07-09T19:35:32.558Z,99236.33
2018-07-09T19:38:01.309Z,99240.02
2018-07-09T19:40:29.653Z,99237.00
2018-07-09T19:42:58.399Z,99230.77
2018-07-09T19:45:27.118Z,99242.95
2018-07-09T19:47:55.895Z,99245.26
2018-07-09T19:50:24.675Z,99246.64
2018-07-09T19:52:53.408Z,99238.56
2018-07-09T19:55:21.789Z,99244.09
2018-07-09T19:57:50.503Z,99242.71
2018-07-09T20:00:19.240Z,99237.19
2018-07-09T20:02:47.951Z,99244.91
2018-07-09T20:05:16.991Z,99244.34
2018-07-09T20:07:45.628Z,99246.85
2018-07-09T20:10:19.105Z,99249.61
2018-07-09T20:12:52.982Z,99249.30
2018-07-09T20:15:26.688Z,99244.83
2018-07-09T20:17:55.360Z,99245.97
2018-07-09T20:20:23.996Z,99245.15
2018-07-09T20:22:53.049Z,99250.42
2018-07-09T20:25:21.853Z,99253.76
2018-07-09T20:27:54.161Z,99253.62
2018-07-09T20:30:22.661Z,99244.73
2018-07-09T20:32:51.388Z,99253.72
2018-07-09T20:35:20.483Z,99249.69
2018-07-09T20:37:49.359Z,99252.52
2018-07-09T20:40:17.823Z,99252.06
2018-07-09T20:42:46.403Z,99256.52
2018-07-09T20:45:14.818Z,99249.38
2018-07-09T20:47:43.332Z,99254.33
2018-07-09T20:50:12.051Z,99251.56
2018-07-09T20:52:40.733Z,99252.38
2018-07-09T20:55:09.387Z,99253.30
2018-07-09T20:57:37.988Z,99256.34
2018-07-09T21:00:06.343Z,99260.23
2018-07-09T21:02:34.840Z,99259.45
2018-07-09T21:05:03.427Z,99258.96
2018-07-09T21:07:32.115Z,99255.88
2018-07-09T21:10:00.728Z,99255.39
2018-07-09T21:12:29.433Z,99253.77
2018-07-09T21:14:58.222Z,99256.30
2018-07-09T21:17:27.061Z,99262.05
2018-07-09T21:19:55.915Z,99256.52
2018-07-09T21:22:24.705Z,99256.88
2018-07-09T21:24:53.317Z,99255.49
2018-07-09T21:27:21.794Z,99258.36
2018-07-09T21:29:50.523Z,99253.16
2018-07-09T21:32:18.804Z,99255.59
2018-07-09T21:34:47.671Z,99254.53
2018-07-09T21:37:16.125Z,99253.72
2018-07-09T21:39:44.403Z,99258.18
2018-07-09T21:42:12.790Z,99254.39
2018-07-09T21:44:41.223Z,99247.24
2018-07-09T21:47:09.713Z,99252.20
2018-07-09T21:49:37.987Z,99248.63
2018-07-09T21:52:06.655Z,99253.58
2018-07-09T21:54:34.995Z,99251.38
2018-07-09T21:57:03.421Z,99252.77
2018-07-09T21:59:32.442Z,99253.89
2018-07-09T22:02:00.793Z,99252.05
2018-07-09T22:04:29.214Z,99254.56
2018-07-09T22:06:57.625Z,99251.55
2018-07-09T22:09:26.513Z,99250.17
2018-07-09T22:11:54.960Z,99247.20
2018-07-09T22:14:24.084Z,99247.77
2018-07-09T22:16:52.473Z,99249.71
2018-07-09T22:19:20.852Z,99242.81
2018-07-09T22:21:49.228Z,99243.38
2018-07-09T22:24:17.632Z,99237.96
2018-07-09T22:26:45.918Z,99235.20
2018-07-09T22:29:14.292Z,99233.58
2018-07-09T22:31:44.307Z,99233.33
2018-07-09T22:34:14.009Z,99226.28
2018-07-09T22:36:43.809Z,99229.14
2018-07-09T22:39:13.781Z,99222.42
2018-07-09T22:41:43.732Z,99222.42
2018-07-09T22:44:18.794Z,99218.95
2018-07-09T22:46:48.836Z,99218.48
2018-07-09T22:49:18.839Z,99221.09
2018-07-09T22:51:48.923Z,99224.27
2018-07-09T22:54:18.732Z,99226.28
2018-07-09T22:56:49.644Z,99220.87
2018-07-09T22:59:19.505Z,99224.54
2018-07-09T23:01:49.320Z,99221.78
2018-07-09T23:04:20.158Z,99214.39
2018-07-09T23:06:50.382Z,99213.36
2018-07-09T23:10:29.060Z,99217.00
2018-07-09T23:13:24.803Z,99208.30
2018-07-09T23:17:09.550Z,99214.97
2018-07-09T23:20:04.340Z,99202.48
2018-07-09T23:22:32.773Z,99207.53
2018-07-09T23:25:01.201Z,99203.61
2018-07-09T23:27:29.554Z,99198.69
2018-07-09T23:29:58.021Z,99191.55
2018-07-09T23:32:27.302Z,99192.68
2018-07-09T23:34:56.496Z,99190.27
2018-07-09T23:37:25.077Z,99187.26
2018-07-09T23:39:53.772Z,99185.64
2018-07-09T23:42:22.200Z,99181.25
2018-07-09T23:44:50.824Z,99186.55
2018-07-09T23:47:19.450Z,99181.81
2018-07-09T23:49:47.869Z,99184.92
2018-07-09T23:52:16.515Z,99176.97
2018-07-09T23:54:45.190Z,99178.91
2018-07-09T23:59:43.837Z,99170.64
